createdAt,value
2023-04-26T00:00:27.190Z,1.98
2023-04-26T00:02:07.674Z,1.96
2023-04-26T00:03:48.156Z,1.99
2023-04-26T00:05:28.559Z,1.93
2023-04-26T00:07:08.786Z,1.87
2023-04-26T00:08:49.346Z,1.83
2023-04-26T00:10:29.596Z,1.75
2023-04-26T00:12:10.055Z,1.72
2023-04-26T00:13:50.477Z,1.68
2023-04-26T00:15:30.855Z,1.66
2023-04-26T00:17:11.212Z,1.64
2023-04-26T00:18:51.776Z,1.62
2023-04-26T00:20:32.063Z,1.54
2023-04-26T00:22:12.559Z,1.5
2023-04-26T00:23:52.759Z,1.45
2023-04-26T00:25:33.144Z,1.43
2023-04-26T00:27:13.612Z,1.4
2023-04-26T00:28:54.308Z,1.35
2023-04-26T00:30:34.424Z,1.3
2023-04-26T00:32:14.838Z,1.24
2023-04-26T00:33:55.180Z,1.26
2023-04-26T00:35:35.558Z,1.23
2023-04-26T00:37:15.991Z,1.22
2023-04-26T00:38:56.436Z,1.2
2023-04-26T00:40:36.752Z,1.17
2023-04-26T00:42:17.165Z,1.13
2023-04-26T00:43:57.594Z,1.14
2023-04-26T00:45:37.976Z,1.12
2023-04-26T00:47:18.324Z,1.1
2023-04-26T00:48:58.750Z,1.08
2023-04-26T00:50:39.183Z,1.13
2023-04-26T00:52:19.630Z,1.19
2023-04-26T00:54:00.051Z,1.19
2023-04-26T00:55:40.417Z,1.26
2023-04-26T00:57:20.781Z,1.24
2023-04-26T00:59:01.087Z,1.27
2023-04-26T01:00:41.578Z,1.33
2023-04-26T01:02:22.124Z,1.38
2023-04-26T01:04:02.746Z,1.44
2023-04-26T01:05:42.878Z,1.51
2023-04-26T01:07:23.308Z,1.54
2023-04-26T01:09:03.597Z,1.58
2023-04-26T01:10:43.988Z,1.64
2023-04-26T01:12:24.290Z,1.65
2023-04-26T01:14:04.565Z,1.62
2023-04-26T01:15:45.014Z,1.59
2023-04-26T01:17:25.448Z,1.58
2023-04-26T01:19:05.802Z,1.48
2023-04-26T01:20:46.358Z,1.41
2023-04-26T01:22:26.644Z,1.33
2023-04-26T01:24:07.086Z,1.3
2023-04-26T01:25:47.486Z,1.26
2023-04-26T01:27:27.949Z,1.17
2023-04-26T01:29:08.370Z,1.16
2023-04-26T01:30:48.784Z,1.08
2023-04-26T01:32:29.205Z,1.08
2023-04-26T01:34:09.571Z,1.07
2023-04-26T01:35:49.961Z,1.02
2023-04-26T01:37:30.351Z,0.99
2023-04-26T01:39:10.768Z,0.95
2023-04-26T01:40:51.132Z,0.86
2023-04-26T01:42:31.494Z,0.8
2023-04-26T01:44:11.907Z,0.69
2023-04-26T01:45:52.340Z,0.65
2023-04-26T01:47:32.728Z,0.58
2023-04-26T01:49:13.103Z,0.51
2023-04-26T01:50:53.669Z,0.45
2023-04-26T01:52:34.004Z,0.41
2023-04-26T01:54:14.369Z,0.35
2023-04-26T01:55:54.803Z,0.31
2023-04-26T01:57:35.174Z,0.21
2023-04-26T01:59:15.583Z,0.16
2023-04-26T02:00:56.035Z,0.14
2023-04-26T02:02:36.526Z,0.07
2023-04-26T02:04:16.808Z,0.06
2023-04-26T02:05:57.174Z,0.01
2023-04-26T02:07:37.612Z,-0.06
2023-04-26T02:09:18.054Z,-0.11
2023-04-26T02:10:58.472Z,-0.17
2023-04-26T02:12:38.908Z,-0.27
2023-04-26T02:14:19.304Z,-0.31
2023-04-26T02:15:59.743Z,-0.37
2023-04-26T02:17:40.056Z,-0.43
2023-04-26T02:19:20.373Z,-0.45
2023-04-26T02:21:00.822Z,-0.47
2023-04-26T02:22:41.213Z,-0.55
2023-04-26T02:24:21.726Z,-0.59
2023-04-26T02:26:02.152Z,-0.61
2023-04-26T02:27:42.538Z,-0.68
2023-04-26T02:29:39.920Z,-0.7
2023-04-26T02:31:03.491Z,-0.73
2023-04-26T02:32:43.895Z,-0.76
2023-04-26T02:34:24.321Z,-0.83
2023-04-26T02:36:04.700Z,-0.88
2023-04-26T02:37:45.074Z,-0.92
2023-04-26T02:39:25.478Z,-0.93
2023-04-26T02:41:05.949Z,-0.96
2023-04-26T02:42:46.284Z,-1.01
2023-04-26T02:44:26.717Z,-1.06
2023-04-26T02:46:07.073Z,-1.1
2023-04-26T02:47:47.503Z,-1.09
2023-04-26T02:49:27.863Z,-1.14
2023-04-26T02:51:08.307Z,-1.21
2023-04-26T02:52:48.730Z,-1.23
2023-04-26T02:54:29.137Z,-1.21
2023-04-26T02:56:09.515Z,-1.2
2023-04-26T02:57:49.942Z,-1.21
2023-04-26T02:59:30.335Z,-1.21
2023-04-26T03:01:10.774Z,-1.24
2023-04-26T03:02:51.343Z,-1.28
2023-04-26T03:04:31.592Z,-1.3
2023-04-26T03:06:11.985Z,-1.36
2023-04-26T03:07:52.320Z,-1.34
2023-04-26T03:09:32.746Z,-1.38
2023-04-26T03:11:13.126Z,-1.37
2023-04-26T03:12:53.546Z,-1.4
2023-04-26T03:14:33.976Z,-1.43
2023-04-26T03:16:14.425Z,-1.44
2023-04-26T03:17:54.842Z,-1.45
2023-04-26T03:19:35.212Z,-1.51
2023-04-26T03:21:15.692Z,-1.52
2023-04-26T03:22:56.084Z,-1.52
2023-04-26T03:24:36.531Z,-1.54
2023-04-26T03:26:16.917Z,-1.59
2023-04-26T03:27:57.229Z,-1.61
2023-04-26T03:29:37.687Z,-1.61
2023-04-26T03:31:18.202Z,-1.64
2023-04-26T03:32:58.586Z,-1.61
2023-04-26T03:34:38.881Z,-1.59
2023-04-26T03:36:19.223Z,-1.61
2023-04-26T03:37:59.565Z,-1.59
2023-04-26T03:39:40.034Z,-1.62
2023-04-26T03:41:20.340Z,-1.67
2023-04-26T03:43:00.796Z,-1.67
2023-04-26T03:44:41.186Z,-1.64
2023-04-26T03:46:21.698Z,-1.58
2023-04-26T03:48:02.165Z,-1.62
2023-04-26T03:49:42.525Z,-1.65
2023-04-26T03:51:22.921Z,-1.69
2023-04-26T03:53:03.351Z,-1.67
2023-04-26T03:54:43.717Z,-1.68
2023-04-26T03:56:24.115Z,-1.64
2023-04-26T03:58:04.490Z,-1.67
2023-04-26T03:59:44.894Z,-1.72
2023-04-26T04:01:25.257Z,-1.71
2023-04-26T04:03:05.828Z,-1.75
2023-04-26T04:04:46.218Z,-1.74
2023-04-26T04:06:26.432Z,-1.78
2023-04-26T04:08:06.869Z,-1.75
2023-04-26T04:09:47.355Z,-1.72
2023-04-26T04:11:27.678Z,-1.68
2023-04-26T04:13:08.065Z,-1.61
2023-04-26T04:14:48.527Z,-1.58
2023-04-26T04:16:28.946Z,-1.61
2023-04-26T04:18:09.267Z,-1.59
2023-04-26T04:19:49.515Z,-1.59
2023-04-26T04:21:29.800Z,-1.61
2023-04-26T04:23:10.206Z,-1.59
2023-04-26T04:24:50.587Z,-1.58
2023-04-26T04:26:30.966Z,-1.57
2023-04-26T04:28:11.334Z,-1.55
2023-04-26T04:29:51.835Z,-1.52
2023-04-26T04:31:32.336Z,-1.5
2023-04-26T04:33:12.729Z,-1.52
2023-04-26T04:34:53.129Z,-1.52
2023-04-26T04:36:33.576Z,-1.52
2023-04-26T04:38:14.009Z,-1.5
2023-04-26T04:39:54.437Z,-1.45
2023-04-26T04:41:34.857Z,-1.45
2023-04-26T04:43:15.280Z,-1.41
2023-04-26T04:44:55.653Z,-1.41
2023-04-26T04:46:36.006Z,-1.38
2023-04-26T04:48:16.407Z,-1.36
2023-04-26T04:49:56.801Z,-1.33
2023-04-26T04:51:37.135Z,-1.3
2023-04-26T04:53:17.552Z,-1.3
2023-04-26T04:54:57.970Z,-1.26
2023-04-26T04:56:38.388Z,-1.2
2023-04-26T04:58:18.858Z,-1.17
2023-04-26T04:59:59.147Z,-1.14
2023-04-26T05:01:39.527Z,-1.1
2023-04-26T05:03:19.929Z,-1.09
2023-04-26T05:05:00.188Z,-1.03
2023-04-26T05:06:40.609Z,-0.97
2023-04-26T05:08:21.013Z,-0.86
2023-04-26T05:10:01.426Z,-0.76
2023-04-26T05:11:41.852Z,-0.68
2023-04-26T05:13:22.291Z,-0.65
2023-04-26T05:15:02.788Z,-0.64
2023-04-26T05:16:43.199Z,-0.59
2023-04-26T05:18:23.618Z,-0.54
2023-04-26T05:20:04.043Z,-0.45
2023-04-26T05:21:44.455Z,-0.38
2023-04-26T05:23:24.799Z,-0.28
2023-04-26T05:25:05.188Z,-0.17
2023-04-26T05:26:45.580Z,-0.09
2023-04-26T05:28:25.939Z,0.01
2023-04-26T05:30:06.379Z,0.07
2023-04-26T05:31:46.787Z,0.17
2023-04-26T05:33:27.175Z,0.2
2023-04-26T05:35:07.574Z,0.27
2023-04-26T05:36:48.054Z,0.34
2023-04-26T05:38:28.466Z,0.44
2023-04-26T05:40:09.035Z,0.52
2023-04-26T05:41:49.343Z,0.61
2023-04-26T05:43:29.683Z,0.69
2023-04-26T05:45:10.096Z,0.77
2023-04-26T05:46:50.517Z,0.87
2023-04-26T05:48:30.884Z,0.96
2023-04-26T05:50:11.308Z,1.1
2023-04-26T05:51:51.710Z,1.24
2023-04-26T05:53:32.099Z,1.41
2023-04-26T05:55:12.509Z,1.62
2023-04-26T05:56:52.887Z,1.79
2023-04-26T05:58:33.157Z,1.86
2023-04-26T06:00:13.504Z,1.95
2023-04-26T06:01:54.038Z,2.06
2023-04-26T06:03:34.623Z,2.2
2023-04-26T06:05:14.951Z,2.38
2023-04-26T06:06:55.093Z,2.55
2023-04-26T06:08:35.501Z,2.71
2023-04-26T06:10:15.949Z,2.89
2023-04-26T06:11:56.313Z,3
2023-04-26T06:13:36.777Z,3.18
2023-04-26T06:15:17.172Z,3.31
2023-04-26T06:16:57.738Z,3.47
2023-04-26T06:18:38.121Z,3.61
2023-04-26T06:20:18.470Z,3.77
2023-04-26T06:21:58.784Z,3.89
2023-04-26T06:23:39.135Z,3.99
2023-04-26T06:25:19.534Z,4.12
2023-04-26T06:26:59.915Z,4.28
2023-04-26T06:28:42.204Z,4.39
2023-04-26T06:30:20.684Z,4.49
2023-04-26T06:32:01.040Z,4.61
2023-04-26T06:33:41.482Z,4.67
2023-04-26T06:35:21.788Z,4.7
2023-04-26T06:37:02.276Z,4.8
2023-04-26T06:38:42.712Z,4.94
2023-04-26T06:40:23.160Z,5.11
2023-04-26T06:42:03.561Z,5.22
2023-04-26T06:43:43.944Z,5.33
2023-04-26T06:45:24.361Z,5.26
2023-04-26T06:47:04.829Z,5.16
2023-04-26T06:48:45.242Z,5.23
2023-04-26T06:50:25.649Z,5.45
2023-04-26T06:52:06.079Z,5.41
2023-04-26T06:53:46.397Z,5.43
2023-04-26T06:55:26.930Z,5.47
2023-04-26T06:57:07.360Z,5.5
2023-04-26T06:58:47.692Z,5.8
2023-04-26T07:00:28.160Z,5.91
2023-04-26T07:02:08.601Z,6.12
2023-04-26T07:03:49.024Z,6.1
2023-04-26T07:05:29.282Z,6.25
2023-04-26T07:07:11.127Z,6.21
2023-04-26T07:08:50.355Z,6.21
2023-04-26T07:10:30.521Z,6.17
2023-04-26T07:12:10.948Z,6.11
2023-04-26T07:13:51.543Z,6.19
2023-04-26T07:15:31.707Z,6.22
2023-04-26T07:17:12.035Z,6.24
2023-04-26T07:18:52.404Z,6.36
2023-04-26T07:20:32.802Z,6.35
2023-04-26T07:22:13.409Z,6.42
2023-04-26T07:23:53.819Z,6.49
2023-04-26T07:25:34.003Z,6.67
2023-04-26T07:27:14.310Z,6.79
2023-04-26T07:28:54.700Z,6.91
2023-04-26T07:30:35.092Z,7.24
2023-04-26T07:32:15.523Z,7.59
2023-04-26T07:33:56.204Z,7.54
2023-04-26T07:35:36.325Z,7.49
2023-04-26T07:37:16.767Z,7.46
2023-04-26T07:38:57.162Z,7.41
2023-04-26T07:40:37.544Z,7.61
2023-04-26T07:42:17.933Z,8.03
2023-04-26T07:43:58.267Z,8.3
2023-04-26T07:45:38.821Z,8.37
2023-04-26T07:47:19.193Z,8.37
2023-04-26T07:48:59.549Z,8.52
2023-04-26T07:50:39.990Z,8.34
2023-04-26T07:52:20.444Z,8.34
2023-04-26T07:54:00.787Z,8.27
2023-04-26T07:55:41.120Z,8.34
2023-04-26T07:57:21.453Z,8.76
2023-04-26T07:59:01.914Z,8.78
2023-04-26T08:00:42.281Z,8.66
2023-04-26T08:02:29.875Z,8.76
2023-04-26T08:04:03.303Z,8.73
2023-04-26T08:05:43.673Z,8.66
2023-04-26T08:07:23.770Z,8.58
2023-04-26T08:09:04.253Z,8.56
2023-04-26T08:10:44.671Z,8.56
2023-04-26T08:12:25.105Z,8.56
2023-04-26T08:14:05.502Z,8.75
2023-04-26T08:15:45.891Z,8.83
2023-04-26T08:17:26.303Z,8.66
2023-04-26T08:19:06.685Z,8.56
2023-04-26T08:20:47.030Z,8.45
2023-04-26T08:22:27.447Z,8.47
2023-04-26T08:24:07.805Z,8.9
2023-04-26T08:25:48.208Z,9.29
2023-04-26T08:27:28.558Z,9.59
2023-04-26T08:29:08.916Z,10.03
2023-04-26T08:30:49.382Z,10.5
2023-04-26T08:32:29.612Z,10.88
2023-04-26T08:34:10.035Z,10.72
2023-04-26T08:35:50.468Z,11.08
2023-04-26T08:37:30.914Z,11.06
2023-04-26T08:39:11.270Z,10.86
2023-04-26T08:40:51.754Z,10.78
2023-04-26T08:42:32.162Z,11.16
2023-04-26T08:44:12.485Z,10.95
2023-04-26T08:45:52.928Z,10.81
2023-04-26T08:47:33.328Z,10.79
2023-04-26T08:49:13.749Z,10.82
2023-04-26T08:50:54.221Z,10.68
2023-04-26T08:52:34.616Z,10.61
2023-04-26T08:54:15.005Z,10.53
2023-04-26T08:55:55.551Z,10.48
2023-04-26T08:57:35.939Z,10.48
2023-04-26T08:59:16.324Z,10.63
2023-04-26T09:00:56.836Z,10.48
2023-04-26T09:02:37.284Z,10.41
2023-04-26T09:04:17.780Z,10.3
2023-04-26T09:05:57.985Z,10.09
2023-04-26T09:07:38.346Z,9.92
2023-04-26T09:09:18.708Z,9.95
2023-04-26T09:10:59.126Z,10
2023-04-26T09:12:39.521Z,10.02
2023-04-26T09:14:19.939Z,9.9
2023-04-26T09:16:01.977Z,9.93
2023-04-26T09:17:40.827Z,10.06
2023-04-26T09:19:21.216Z,10.46
2023-04-26T09:21:01.611Z,10.99
2023-04-26T09:22:42.006Z,11.15
2023-04-26T09:24:22.411Z,11.63
2023-04-26T09:26:02.889Z,11.47
2023-04-26T09:27:43.169Z,11.4
2023-04-26T09:29:23.508Z,11.26
2023-04-26T09:31:03.941Z,10.95
2023-04-26T09:32:44.401Z,10.82
2023-04-26T09:34:24.825Z,10.75
2023-04-26T09:36:05.237Z,10.79
2023-04-26T09:37:57.286Z,10.78
2023-04-26T09:39:26.121Z,10.78
2023-04-26T09:41:06.584Z,10.7
2023-04-26T09:42:47.026Z,10.6
2023-04-26T09:44:27.384Z,10.57
2023-04-26T09:46:07.825Z,10.57
2023-04-26T09:47:48.204Z,10.68
2023-04-26T09:49:28.640Z,10.94
2023-04-26T09:51:09.056Z,11.13
2023-04-26T09:52:49.480Z,11.43
2023-04-26T09:54:29.921Z,11.88
2023-04-26T09:56:10.316Z,11.67
2023-04-26T09:57:50.741Z,11.66
2023-04-26T09:59:31.201Z,11.77
2023-04-26T10:01:11.780Z,11.46
2023-04-26T10:02:52.094Z,11.34
2023-04-26T10:04:32.472Z,11.39
2023-04-26T10:06:12.878Z,11.73
2023-04-26T10:07:53.227Z,11.78
2023-04-26T10:09:33.601Z,11.6
2023-04-26T10:11:14.106Z,11.57
2023-04-26T10:13:00.273Z,12.01
2023-04-26T10:14:40.644Z,12.57
2023-04-26T10:16:21.024Z,12.39
2023-04-26T10:18:01.303Z,12.31
2023-04-26T10:19:41.621Z,12.02
2023-04-26T10:21:21.993Z,11.85
2023-04-26T10:23:02.453Z,11.78
2023-04-26T10:24:42.813Z,11.64
2023-04-26T10:26:23.242Z,11.5
2023-04-26T10:28:03.610Z,11.33
2023-04-26T10:29:44.006Z,10.99
2023-04-26T10:31:24.422Z,10.88
2023-04-26T10:33:04.731Z,10.74
2023-04-26T10:34:45.124Z,10.64
2023-04-26T10:36:25.545Z,10.5
2023-04-26T10:38:06.007Z,10.54
2023-04-26T10:39:46.464Z,10.44
2023-04-26T10:41:26.690Z,10.36
2023-04-26T10:43:07.152Z,10.13
2023-04-26T10:44:47.488Z,10.07
2023-04-26T10:46:28.021Z,9.95
2023-04-26T10:48:08.399Z,9.89
2023-04-26T10:49:48.919Z,9.84
2023-04-26T10:51:29.158Z,9.81
2023-04-26T10:53:09.477Z,9.68
2023-04-26T10:54:49.840Z,9.61
2023-04-26T10:56:30.275Z,9.57
2023-04-26T10:58:10.689Z,9.59
2023-04-26T10:59:54.782Z,9.68
2023-04-26T11:01:31.658Z,9.85
2023-04-26T11:03:12.210Z,9.92
2023-04-26T11:04:52.554Z,9.84
2023-04-26T11:06:32.843Z,9.86
2023-04-26T11:08:13.309Z,9.84
2023-04-26T11:09:53.607Z,9.79
2023-04-26T11:11:34.029Z,9.79
2023-04-26T11:13:14.480Z,9.77
2023-04-26T11:14:54.875Z,9.84
2023-04-26T11:16:35.387Z,9.89
2023-04-26T11:18:15.725Z,9.96
2023-04-26T11:19:56.094Z,10.09
2023-04-26T11:21:36.537Z,10.16
2023-04-26T11:23:16.877Z,10.23
2023-04-26T11:24:57.328Z,10.23
2023-04-26T11:26:37.697Z,10.06
2023-04-26T11:28:18.129Z,9.88
2023-04-26T11:29:58.587Z,9.77
2023-04-26T11:31:39.107Z,9.77
2023-04-26T11:33:19.403Z,9.85
2023-04-26T11:34:59.863Z,9.93
2023-04-26T11:36:40.263Z,9.99
2023-04-26T11:38:20.704Z,10.05
2023-04-26T11:40:01.192Z,10.03
2023-04-26T11:41:41.546Z,9.92
2023-04-26T11:43:22.124Z,9.78
2023-04-26T11:45:02.482Z,9.68
2023-04-26T11:46:42.942Z,9.78
2023-04-26T11:48:23.343Z,9.86
2023-04-26T11:50:03.642Z,10.03
2023-04-26T11:51:43.943Z,10.2
2023-04-26T11:53:24.314Z,10.24
2023-04-26T11:55:04.722Z,10.32
2023-04-26T11:56:45.190Z,10.39
2023-04-26T11:58:25.652Z,10.47
2023-04-26T12:00:06.189Z,10.54
2023-04-26T12:01:46.571Z,10.68
2023-04-26T12:03:27.098Z,10.81
2023-04-26T12:05:07.407Z,10.78
2023-04-26T12:06:47.673Z,10.7
2023-04-26T12:08:28.085Z,10.67
2023-04-26T12:10:08.475Z,10.68
2023-04-26T12:11:48.802Z,10.67
2023-04-26T12:13:29.301Z,10.6
2023-04-26T12:15:09.694Z,10.48
2023-04-26T12:16:50.208Z,10.46
2023-04-26T12:18:30.562Z,10.37
2023-04-26T12:20:11.127Z,10.33
2023-04-26T12:21:51.392Z,10.3
2023-04-26T12:23:31.898Z,10.21
2023-04-26T12:25:12.233Z,10.1
2023-04-26T12:26:52.538Z,9.96
2023-04-26T12:28:32.904Z,9.95
2023-04-26T12:30:13.305Z,9.93
2023-04-26T12:31:53.572Z,9.93
2023-04-26T12:33:34.072Z,9.86
2023-04-26T12:35:14.465Z,9.88
2023-04-26T12:36:54.997Z,9.81
2023-04-26T12:38:35.324Z,9.88
2023-04-26T12:40:15.778Z,9.99
2023-04-26T12:41:56.184Z,10.07
2023-04-26T12:43:36.628Z,10.21
2023-04-26T12:45:16.992Z,10.32
2023-04-26T12:46:57.418Z,10.36
2023-04-26T12:48:37.786Z,10.33
2023-04-26T12:50:18.808Z,10.35
2023-04-26T12:51:58.645Z,10.35
2023-04-26T12:53:38.992Z,10.36
2023-04-26T12:55:19.444Z,10.41
2023-04-26T12:56:59.919Z,10.51
2023-04-26T12:58:40.330Z,10.56
2023-04-26T13:00:20.786Z,10.57
2023-04-26T13:02:01.152Z,10.63
2023-04-26T13:03:41.756Z,10.63
2023-04-26T13:05:21.928Z,10.72
2023-04-26T13:07:02.399Z,10.75
2023-04-26T13:08:42.749Z,10.78
2023-04-26T13:10:23.118Z,10.84
2023-04-26T13:12:03.515Z,10.94
2023-04-26T13:13:44.896Z,11.04
2023-04-26T13:15:24.367Z,11.36
2023-04-26T13:17:04.758Z,11.67
2023-04-26T13:18:45.222Z,11.8
2023-04-26T13:20:26.759Z,11.87
2023-04-26T13:22:06.192Z,11.95
2023-04-26T13:23:46.613Z,12.02
2023-04-26T13:25:27.035Z,12.04
2023-04-26T13:27:07.377Z,12.11
2023-04-26T13:28:47.779Z,12.12
2023-04-26T13:30:28.149Z,12.15
2023-04-26T13:32:08.609Z,12.22
2023-04-26T13:33:48.983Z,12.19
2023-04-26T13:35:29.339Z,12.29
2023-04-26T13:37:09.679Z,12.38
2023-04-26T13:38:50.046Z,12.4
2023-04-26T13:40:30.525Z,12.4
2023-04-26T13:42:10.916Z,12.55
2023-04-26T13:43:51.365Z,12.66
2023-04-26T13:45:31.833Z,12.62
2023-04-26T13:47:12.260Z,12.64
2023-04-26T13:48:52.693Z,13.06
2023-04-26T13:50:33.066Z,13.34
2023-04-26T13:52:13.444Z,13.21
2023-04-26T13:53:53.802Z,13.42
2023-04-26T13:55:34.212Z,13.84
2023-04-26T13:57:14.613Z,14.04
2023-04-26T13:58:55.015Z,13.99
2023-04-26T14:00:35.422Z,13.79
2023-04-26T14:02:16.066Z,13.55
2023-04-26T14:03:56.629Z,13.29
2023-04-26T14:05:36.748Z,13.1
2023-04-26T14:07:17.133Z,13.07
2023-04-26T14:08:57.541Z,12.91
2023-04-26T14:10:37.885Z,12.77
2023-04-26T14:12:18.282Z,12.63
2023-04-26T14:13:58.627Z,12.52
2023-04-26T14:15:39.010Z,12.35
2023-04-26T14:17:19.421Z,12.09
2023-04-26T14:18:59.775Z,11.82
2023-04-26T14:20:40.205Z,11.61
2023-04-26T14:22:20.577Z,11.39
2023-04-26T14:24:00.913Z,11.3
2023-04-26T14:25:41.348Z,11.26
2023-04-26T14:27:21.836Z,11.13
2023-04-26T14:29:02.235Z,10.95
2023-04-26T14:30:42.695Z,10.82
2023-04-26T14:32:23.278Z,10.65
2023-04-26T14:34:03.574Z,10.47
2023-04-26T14:35:43.965Z,10.36
2023-04-26T14:37:24.427Z,10.24
2023-04-26T14:39:04.832Z,10.1
2023-04-26T14:40:45.190Z,9.96
2023-04-26T14:42:25.605Z,9.85
2023-04-26T14:44:06.044Z,9.75
2023-04-26T14:45:46.472Z,9.59
2023-04-26T14:47:27.003Z,9.51
2023-04-26T14:49:07.379Z,9.44
2023-04-26T14:50:47.832Z,9.38
2023-04-26T14:52:28.286Z,9.31
2023-04-26T14:54:08.657Z,9.27
2023-04-26T14:55:48.970Z,9.29
2023-04-26T14:57:29.429Z,9.27
2023-04-26T14:59:09.833Z,9.29
2023-04-26T15:00:50.352Z,9.24
2023-04-26T15:02:30.788Z,9.26
2023-04-26T15:04:11.121Z,9.29
2023-04-26T15:05:51.377Z,9.37
2023-04-26T15:07:32.848Z,9.48
2023-04-26T15:09:12.041Z,9.58
2023-04-26T15:10:52.421Z,9.63
2023-04-26T15:12:32.867Z,9.75
2023-04-26T15:14:13.191Z,9.85
2023-04-26T15:15:53.663Z,9.96
2023-04-26T15:17:34.062Z,10.03
2023-04-26T15:19:14.503Z,10.02
2023-04-26T15:20:54.799Z,10.09
2023-04-26T15:22:38.004Z,10.12
2023-04-26T15:24:15.649Z,10.17
2023-04-26T15:25:56.041Z,10.14
2023-04-26T15:27:36.510Z,10.16
2023-04-26T15:29:16.856Z,10.2
2023-04-26T15:30:57.237Z,10.17
2023-04-26T15:32:37.769Z,10.12
2023-04-26T15:34:18.064Z,10
2023-04-26T15:35:58.423Z,9.96
2023-04-26T15:37:38.786Z,9.92
2023-04-26T15:39:19.135Z,9.96
2023-04-26T15:40:59.585Z,9.92
2023-04-26T15:42:39.977Z,9.9
2023-04-26T15:44:20.375Z,9.84
2023-04-26T15:46:00.812Z,9.84
2023-04-26T15:47:41.202Z,9.82
2023-04-26T15:49:21.454Z,9.81
2023-04-26T15:51:01.944Z,9.79
2023-04-26T15:52:42.348Z,9.78
2023-04-26T15:54:22.784Z,9.74
2023-04-26T15:56:03.262Z,9.75
2023-04-26T15:57:43.609Z,9.77
2023-04-26T15:59:23.915Z,9.74
2023-04-26T16:01:04.436Z,9.71
2023-04-26T16:02:48.013Z,9.68
2023-04-26T16:04:25.514Z,9.69
2023-04-26T16:06:05.576Z,9.68
2023-04-26T16:07:45.984Z,9.63
2023-04-26T16:09:26.414Z,9.62
2023-04-26T16:11:06.823Z,9.59
2023-04-26T16:12:47.250Z,9.65
2023-04-26T16:14:27.644Z,9.69
2023-04-26T16:16:08.251Z,9.65
2023-04-26T16:17:48.496Z,9.65
2023-04-26T16:19:28.838Z,9.63
2023-04-26T16:21:09.288Z,9.58
2023-04-26T16:22:49.728Z,9.57
2023-04-26T16:24:30.162Z,9.57
2023-04-26T16:26:10.576Z,9.57
2023-04-26T16:27:50.985Z,9.62
2023-04-26T16:29:31.412Z,9.61
2023-04-26T16:31:11.902Z,9.54
2023-04-26T16:32:52.436Z,9.52
2023-04-26T16:34:32.807Z,9.45
2023-04-26T16:36:13.239Z,9.4
2023-04-26T16:37:53.618Z,9.34
2023-04-26T16:39:33.953Z,9.3
2023-04-26T16:41:14.347Z,9.29
2023-04-26T16:42:54.854Z,9.21
2023-04-26T16:44:35.266Z,9.19
2023-04-26T16:46:15.674Z,9.17
2023-04-26T16:47:56.179Z,9.14
2023-04-26T16:49:36.510Z,9.11
2023-04-26T16:51:16.931Z,9.13
2023-04-26T16:52:57.258Z,9.1
2023-04-26T16:54:37.671Z,9.09
2023-04-26T16:56:18.051Z,9.09
2023-04-26T16:57:58.427Z,9.09
2023-04-26T16:59:38.796Z,9.26
2023-04-26T17:01:19.250Z,9.45
2023-04-26T17:02:59.693Z,9.66
2023-04-26T17:04:40.151Z,9.84
2023-04-26T17:06:20.449Z,10.05
2023-04-26T17:08:00.887Z,10.2
2023-04-26T17:09:41.313Z,10.33
2023-04-26T17:11:21.787Z,10.5
2023-04-26T17:13:02.191Z,10.67
2023-04-26T17:14:42.620Z,10.74
2023-04-26T17:16:23.141Z,10.67
2023-04-26T17:18:03.450Z,10.54
2023-04-26T17:19:43.787Z,10.5
2023-04-26T17:21:24.244Z,10.54
2023-04-26T17:23:04.657Z,10.57
2023-04-26T17:24:45.131Z,10.36
2023-04-26T17:26:25.491Z,10.16
2023-04-26T17:28:05.821Z,10.02
2023-04-26T17:29:46.125Z,9.88
2023-04-26T17:31:26.524Z,9.72
2023-04-26T17:33:07.000Z,9.69
2023-04-26T17:34:50.362Z,9.69
2023-04-26T17:36:27.716Z,9.75
2023-04-26T17:38:08.084Z,9.62
2023-04-26T17:39:48.674Z,9.48
2023-04-26T17:41:29.082Z,9.33
2023-04-26T17:43:09.476Z,9.19
2023-04-26T17:44:49.903Z,9.04
2023-04-26T17:46:30.358Z,8.9
2023-04-26T17:48:10.870Z,8.78
2023-04-26T17:49:51.364Z,8.66
2023-04-26T17:51:31.726Z,8.52
2023-04-26T17:53:11.980Z,8.41
2023-04-26T17:54:52.431Z,8.28
2023-04-26T17:56:35.817Z,8.17
2023-04-26T17:58:13.178Z,8.08
2023-04-26T17:59:53.669Z,7.94
2023-04-26T18:01:34.225Z,7.83
2023-04-26T18:03:14.767Z,7.73
2023-04-26T18:04:55.276Z,7.61
2023-04-26T18:06:38.352Z,7.52
2023-04-26T18:08:15.688Z,7.44
2023-04-26T18:09:56.030Z,7.32
2023-04-26T18:11:36.344Z,7.17
2023-04-26T18:13:16.775Z,7.04
2023-04-26T18:14:57.096Z,6.9
2023-04-26T18:16:37.544Z,6.77
2023-04-26T18:18:17.987Z,6.65
2023-04-26T18:19:58.360Z,6.49
2023-04-26T18:21:38.759Z,6.36
2023-04-26T18:23:19.498Z,6.19
2023-04-26T18:24:59.644Z,6.11
2023-04-26T18:26:41.107Z,5.97
2023-04-26T18:28:20.398Z,5.84
2023-04-26T18:30:00.883Z,5.74
2023-04-26T18:31:44.209Z,5.56
2023-04-26T18:33:24.553Z,5.42
2023-04-26T18:35:01.891Z,5.23
2023-04-26T18:36:42.197Z,5.14
2023-04-26T18:38:22.677Z,5.01
2023-04-26T18:40:03.032Z,4.9
2023-04-26T18:41:43.415Z,4.78
2023-04-26T18:43:30.837Z,4.7
2023-04-26T18:45:04.259Z,4.53
2023-04-26T18:46:44.715Z,4.44
2023-04-26T18:48:25.079Z,4.3
2023-04-26T18:50:05.505Z,4.2
2023-04-26T18:51:45.931Z,4.12
2023-04-26T18:53:26.373Z,3.95
2023-04-26T18:55:06.778Z,3.84
2023-04-26T18:56:47.206Z,3.75
2023-04-26T18:58:27.626Z,3.64
2023-04-26T19:00:08.080Z,3.56
2023-04-26T19:01:48.516Z,3.44
2023-04-26T19:03:28.981Z,3.36
2023-04-26T19:05:16.300Z,3.26
2023-04-26T19:06:49.512Z,3.18
2023-04-26T19:08:29.997Z,3.08
2023-04-26T19:10:10.376Z,2.99
2023-04-26T19:11:50.785Z,2.92
2023-04-26T19:13:31.217Z,2.88
2023-04-26T19:15:11.670Z,2.75
2023-04-26T19:16:52.027Z,2.67
2023-04-26T19:18:32.489Z,2.61
2023-04-26T19:20:12.931Z,2.54
2023-04-26T19:21:53.379Z,2.44
2023-04-26T19:23:33.691Z,2.41
2023-04-26T19:25:14.026Z,2.36
2023-04-26T19:26:54.465Z,2.3
2023-04-26T19:28:34.883Z,2.26
2023-04-26T19:30:15.310Z,2.22
2023-04-26T19:31:55.791Z,2.06
2023-04-26T19:33:36.104Z,2.01
2023-04-26T19:35:16.517Z,1.93
2023-04-26T19:36:56.888Z,1.85
2023-04-26T19:38:37.464Z,1.82
2023-04-26T19:40:17.735Z,1.73
2023-04-26T19:41:59.124Z,1.68
2023-04-26T19:43:38.385Z,1.61
2023-04-26T19:45:18.733Z,1.57
2023-04-26T19:46:59.157Z,1.55
2023-04-26T19:48:39.342Z,1.48
2023-04-26T19:50:19.818Z,1.43
2023-04-26T19:52:00.253Z,1.38
2023-04-26T19:53:40.567Z,1.31
2023-04-26T19:55:20.965Z,1.27
2023-04-26T19:57:01.416Z,1.24
2023-04-26T19:58:41.876Z,1.23
2023-04-26T20:00:22.361Z,1.17
2023-04-26T20:02:02.927Z,1.14
2023-04-26T20:03:43.442Z,1.12
2023-04-26T20:05:23.605Z,1.06
2023-04-26T20:07:04.031Z,1.03
2023-04-26T20:08:44.343Z,1
2023-04-26T20:10:24.863Z,0.9
2023-04-26T20:12:05.231Z,0.83
2023-04-26T20:13:45.600Z,0.85
2023-04-26T20:15:26.064Z,0.82
2023-04-26T20:17:06.478Z,0.77
2023-04-26T20:18:46.825Z,0.75
2023-04-26T20:20:27.264Z,0.75
2023-04-26T20:22:07.668Z,0.72
2023-04-26T20:23:48.005Z,0.71
2023-04-26T20:25:28.409Z,0.66
2023-04-26T20:27:08.770Z,0.59
2023-04-26T20:28:49.073Z,0.59
2023-04-26T20:30:29.376Z,0.58
2023-04-26T20:32:09.846Z,0.52
2023-04-26T20:33:50.226Z,0.49
2023-04-26T20:35:30.633Z,0.48
2023-04-26T20:37:11.002Z,0.42
2023-04-26T20:38:51.370Z,0.42
2023-04-26T20:40:31.742Z,0.42
2023-04-26T20:42:12.169Z,0.35
2023-04-26T20:43:52.608Z,0.28
2023-04-26T20:45:33.050Z,0.27
2023-04-26T20:47:13.432Z,0.27
2023-04-26T20:48:53.833Z,0.27
2023-04-26T20:50:36.424Z,0.25
2023-04-26T20:52:14.644Z,0.24
2023-04-26T20:53:55.104Z,0.22
2023-04-26T20:55:35.486Z,0.21
2023-04-26T20:57:15.961Z,0.2
2023-04-26T20:58:56.340Z,0.16
2023-04-26T21:00:36.691Z,0.14
2023-04-26T21:02:17.171Z,0.14
2023-04-26T21:03:57.656Z,0.13
2023-04-26T21:05:37.957Z,0.16
2023-04-26T21:07:18.329Z,0.14
2023-04-26T21:08:58.815Z,0.14
2023-04-26T21:10:39.099Z,0.11
2023-04-26T21:12:19.508Z,0.08
2023-04-26T21:13:59.788Z,0.1
2023-04-26T21:15:40.156Z,0.08
2023-04-26T21:17:20.537Z,0.06
2023-04-26T21:19:00.825Z,0.06
2023-04-26T21:20:41.168Z,0.04
2023-04-26T21:22:21.671Z,0.01
2023-04-26T21:24:02.107Z,0.01
2023-04-26T21:25:42.505Z,0
2023-04-26T21:27:23.042Z,-0.03
2023-04-26T21:29:03.377Z,-0.07
2023-04-26T21:30:43.754Z,-0.09
2023-04-26T21:32:24.113Z,-0.11
2023-04-26T21:34:04.565Z,-0.18
2023-04-26T21:35:44.913Z,-0.24
2023-04-26T21:37:25.286Z,-0.24
2023-04-26T21:39:05.616Z,-0.28
2023-04-26T21:40:45.930Z,-0.31
2023-04-26T21:42:26.266Z,-0.32
2023-04-26T21:44:06.696Z,-0.38
2023-04-26T21:45:47.110Z,-0.42
2023-04-26T21:47:27.438Z,-0.42
2023-04-26T21:49:08.198Z,-0.42
2023-04-26T21:50:48.165Z,-0.42
2023-04-26T21:52:28.604Z,-0.48
2023-04-26T21:54:09.011Z,-0.47
2023-04-26T21:55:49.406Z,-0.47
2023-04-26T21:57:29.824Z,-0.47
2023-04-26T21:59:10.543Z,-0.47
2023-04-26T22:00:50.634Z,-0.51